Time;durP1;ratioP1;P1;durP2;ratioP2;P2;SDS_P1;SDS_P2;PMS_P1;PMS_P2;Temp;Humidity;BMP_temperature;BMP_pressure;BME280_temperature;BME280_humidity;BME280_pressure;Samples;Min_cycle;Max_cycle;Signal;HPM_P1;HPM_P2
2022/03/06 00:00:04;;;;;;;45.22;22.35;;;;;;;;;;7337418;19;153684;-14
2022/03/06 00:02:44;;;;;;;42.67;21.35;;;;;;;;;;7334338;19;162421;-13
2022/03/06 00:05:16;;;;;;;45.08;22.98;;;;;;;;;;7335527;19;162117;-14
2022/03/06 00:07:48;;;;;;;43.35;21.35;;;;;;;;;;7336989;19;154015;-13
2022/03/06 00:10:20;;;;;;;37.97;21.02;;;;;;;;;;7333571;19;153612;-14
2022/03/06 00:12:52;;;;;;;38.50;20.83;;;;;;;;;;7334659;19;161639;-14
2022/03/06 00:15:26;;;;;;;38.30;19.65;;;;;;;;;;7332185;19;162326;-14
2022/03/06 00:18:01;;;;;;;38.28;19.42;;;;;;;;;;7337012;19;154056;-14
2022/03/06 00:20:32;;;;;;;36.63;18.85;;;;;;;;;;7333596;19;153942;-13
2022/03/06 00:23:06;;;;;;;39.20;19.75;;;;;;;;;;7334388;19;161799;-14
2022/03/06 00:25:41;;;;;;;38.97;19.83;;;;;;;;;;7332384;19;162334;-14
2022/03/06 00:28:13;;;;;;;38.78;18.95;;;;;;;;;;7335487;19;153960;-15
2022/03/06 00:30:46;;;;;;;35.85;18.95;;;;;;;;;;7335237;19;153543;-13
2022/03/06 00:33:21;;;;;;;24.92;14.05;;;;;;;;;;7332934;19;162202;-14
2022/03/06 00:35:53;;;;;;;26.40;13.05;;;;;;;;;;7324780;19;162788;-14
2022/03/06 00:38:25;;;;;;;22.30;11.80;;;;;;;;;;7331946;19;154334;-15
2022/03/06 00:40:58;;;;;;;23.08;13.07;;;;;;;;;;7331221;19;154127;-15
2022/03/06 00:43:36;;;;;;;26.10;14.10;;;;;;;;;;7327055;19;161920;-19
2022/03/06 00:46:09;;;;;;;23.73;13.52;;;;;;;;;;7327750;19;162589;-15
2022/03/06 10:11:17;;;;;;;13.07;2.25;;;;;;;;;;7373290;19;132521;-13
2022/03/06 10:13:48;;;;;;;3.65;1.95;;;;;;;;;;7352432;19;153672;-15
2022/03/06 10:16:21;;;;;;;2.20;1.88;;;;;;;;;;7353830;19;162004;-14
2022/03/06 10:18:54;;;;;;;3.22;2.03;;;;;;;;;;7351302;19;163057;-15
2022/03/06 10:21:27;;;;;;;4.65;2.25;;;;;;;;;;7352091;19;153859;-14
2022/03/06 10:23:59;;;;;;;3.90;2.13;;;;;;;;;;7352076;19;153728;-15
2022/03/06 10:26:35;;;;;;;2.10;1.67;;;;;;;;;;7351699;19;162088;-14
2022/03/06 10:29:11;;;;;;;5.47;1.65;;;;;;;;;;7351203;19;162622;-13
2022/03/06 10:31:56;;;;;;;5.15;2.45;;;;;;;;;;7355744;19;153883;-14
2022/03/06 10:34:37;;;;;;;4.95;2.00;;;;;;;;;;7364039;19;153447;-13
2022/03/06 10:37:09;;;;;;;3.78;2.13;;;;;;;;;;7362526;19;161858;-14
2022/03/06 10:39:49;;;;;;;3.13;1.73;;;;;;;;;;7362668;19;162473;-13
2022/03/06 10:42:26;;;;;;;2.58;2.05;;;;;;;;;;7366711;19;154027;-14
2022/03/06 10:44:57;;;;;;;3.17;1.80;;;;;;;;;;7367044;19;153667;-14
2022/03/06 10:47:28;;;;;;;3.65;1.85;;;;;;;;;;7363246;19;162026;-15
2022/03/06 10:50:05;;;;;;;2.53;2.10;;;;;;;;;;7365854;19;162526;-14
2022/03/06 10:52:43;;;;;;;3.05;1.90;;;;;;;;;;7366544;19;153939;-14
2022/03/06 10:55:14;;;;;;;2.45;1.77;;;;;;;;;;7367386;19;153819;-15
2022/03/06 10:57:57;;;;;;;1.88;1.67;;;;;;;;;;7364572;19;161820;-16
2022/03/06 11:00:30;;;;;;;4.97;1.92;;;;;;;;;;7363288;19;162407;-15
2022/03/06 11:03:07;;;;;;;1.70;1.60;;;;;;;;;;7366988;19;153966;-15
2022/03/06 11:05:41;;;;;;;5.28;2.47;;;;;;;;;;7363489;19;153636;-16
2022/03/06 11:08:15;;;;;;;4.88;2.10;;;;;;;;;;7363048;19;161803;-15
2022/03/06 11:10:46;;;;;;;4.32;2.20;;;;;;;;;;7345486;19;162602;-14
2022/03/06 11:13:20;;;;;;;3.00;2.13;;;;;;;;;;7332241;19;154143;-15
2022/03/06 11:15:53;;;;;;;5.80;2.80;;;;;;;;;;7335987;19;153480;-15
2022/03/06 11:18:27;;;;;;;5.22;2.60;;;;;;;;;;7328350;19;161844;-15
2022/03/06 11:21:02;;;;;;;6.47;3.15;;;;;;;;;;7328796;19;162601;-13
2022/03/06 11:23:39;;;;;;;7.07;2.50;;;;;;;;;;7333802;19;154166;-15
2022/03/06 11:26:33;;;;;;;7.97;2.20;;;;;;;;;;7333321;19;153695;-14
2022/03/06 11:29:36;;;;;;;;;;;;;;;;;;7337556;19;162222;-14
2022/03/06 11:32:09;;;;;;;4.65;2.45;;;;;;;;;;7333349;19;162545;-14
2022/03/06 11:34:43;;;;;;;4.88;2.60;;;;;;;;;;7333772;19;153905;-15
2022/03/06 11:37:16;;;;;;;4.05;2.20;;;;;;;;;;7333836;19;153529;-14
2022/03/06 11:39:51;;;;;;;3.53;2.00;;;;;;;;;;7332821;19;161777;-14
2022/03/06 11:42:52;;;;;;;5.57;2.08;;;;;;;;;;7333235;19;162313;-14
2022/03/06 11:45:54;;;;;;;2.17;1.95;;;;;;;;;;7334873;19;153941;-14
2022/03/06 11:48:28;;;;;;;2.17;2.00;;;;;;;;;;7333399;19;153770;-13
2022/03/06 11:51:30;;;;;;;2.47;2.10;;;;;;;;;;7331872;19;162108;-13
2022/03/06 11:54:04;;;;;;;3.95;2.28;;;;;;;;;;7332981;19;162438;-14
2022/03/06 11:56:51;;;;;;;4.72;2.17;;;;;;;;;;7333124;19;153915;-14
2022/03/06 11:59:44;;;;;;;4.72;2.38;;;;;;;;;;7333063;19;153823;-16
2022/03/06 12:02:23;;;;;;;3.47;2.83;;;;;;;;;;7332913;19;161778;-14
2022/03/06 12:04:57;;;;;;;4.43;2.72;;;;;;;;;;7332814;19;162426;-14
2022/03/06 12:07:29;;;;;;;3.17;2.40;;;;;;;;;;7333093;19;154343;-14
2022/03/06 12:10:00;;;;;;;2.40;2.17;;;;;;;;;;7331352;19;153518;-14
2022/03/06 12:12:31;;;;;;;3.70;2.53;;;;;;;;;;7332461;19;161938;-14
2022/03/06 12:15:16;;;;;;;4.57;2.28;;;;;;;;;;7333059;19;162632;-14
2022/03/06 12:17:50;;;;;;;3.20;2.20;;;;;;;;;;7332577;19;153911;-13
2022/03/06 12:20:26;;;;;;;2.17;1.73;;;;;;;;;;7331968;19;153521;-13
2022/03/06 12:23:09;;;;;;;3.22;1.80;;;;;;;;;;7329747;19;161777;-14
2022/03/06 12:25:52;;;;;;;2.38;1.77;;;;;;;;;;7332196;19;162451;-14
2022/03/06 12:28:43;;;;;;;1.97;1.63;;;;;;;;;;7324736;19;153955;-14
2022/03/06 12:31:37;;;;;;;1.90;1.70;;;;;;;;;;7325033;19;153684;-14
2022/03/06 12:34:42;;;;;;;2.08;1.60;;;;;;;;;;7323110;19;162029;-14
2022/03/06 12:37:13;;;;;;;4.18;1.80;;;;;;;;;;7322858;19;163271;-13
2022/03/06 12:39:46;;;;;;;3.38;1.85;;;;;;;;;;7322916;19;153901;-14
2022/03/06 12:42:24;;;;;;;;;;;;;;;;;;7324801;19;153661;-14
2022/03/06 12:44:58;;;;;;;1.45;1.30;;;;;;;;;;7325747;19;162302;-14
2022/03/06 12:47:30;;;;;;;3.03;1.33;;;;;;;;;;7322307;19;162347;-13
2022/03/06 12:50:04;;;;;;;1.85;1.27;;;;;;;;;;7329155;19;153966;-15
2022/03/06 12:52:38;;;;;;;1.55;1.20;;;;;;;;;;7335824;19;153794;-13
2022/03/06 12:55:15;;;;;;;1.38;1.30;;;;;;;;;;7331173;19;161862;-13
2022/03/06 12:57:47;;;;;;;1.40;1.30;;;;;;;;;;7330999;19;162888;-14
2022/03/06 13:00:23;;;;;;;2.47;1.80;;;;;;;;;;7332620;19;154063;-13
2022/03/06 13:02:56;;;;;;;2.33;1.60;;;;;;;;;;7335730;19;153505;-13
2022/03/06 13:05:33;;;;;;;2.15;1.95;;;;;;;;;;7330976;19;161954;-14
2022/03/06 13:08:05;;;;;;;2.88;1.80;;;;;;;;;;7330512;19;162451;-14
2022/03/06 13:10:36;;;;;;;2.22;1.92;;;;;;;;;;7328302;19;153954;-14
2022/03/06 13:13:09;;;;;;;3.35;1.77;;;;;;;;;;7329572;19;153913;-14
2022/03/06 13:15:41;;;;;;;;;;;;;;;;;;7332943;19;161888;-14
2022/03/06 13:18:14;;;;;;;1.98;1.30;;;;;;;;;;7329135;19;162542;-13
2022/03/06 13:20:48;;;;;;;1.63;1.52;;;;;;;;;;7332992;19;154243;-13
2022/03/06 13:23:23;;;;;;;1.80;1.48;;;;;;;;;;7330782;19;153633;-13
2022/03/06 13:25:54;;;;;;;2.30;2.10;;;;;;;;;;7330196;19;161811;-14
2022/03/06 13:28:26;;;;;;;2.47;2.28;;;;;;;;;;7330156;19;162538;-14
2022/03/06 13:31:02;;;;;;;2.40;2.00;;;;;;;;;;7333341;19;153937;-13
2022/03/06 13:33:34;;;;;;;2.03;1.90;;;;;;;;;;7329558;19;153499;-13
2022/03/06 13:36:18;;;;;;;2.03;1.83;;;;;;;;;;7332151;19;161896;-15
2022/03/06 13:39:01;;;;;;;1.80;1.70;;;;;;;;;;7328862;19;162398;-14
2022/03/06 13:41:32;;;;;;;1.92;1.83;;;;;;;;;;7329169;19;153925;-15
2022/03/06 13:44:07;;;;;;;2.20;1.95;;;;;;;;;;7330172;19;153952;-16
2022/03/06 13:46:40;;;;;;;2.45;1.63;;;;;;;;;;7333796;19;162156;-13
2022/03/06 13:49:15;;;;;;;2.13;1.92;;;;;;;;;;7328360;19;162565;-14
2022/03/06 13:51:54;;;;;;;2.53;1.75;;;;;;;;;;7329968;19;153947;-14
2022/03/06 13:54:26;;;;;;;2.15;2.00;;;;;;;;;;7329624;19;153508;-14
2022/03/06 13:57:01;;;;;;;2.00;1.80;;;;;;;;;;7329415;19;161785;-14
2022/03/06 13:59:36;;;;;;;1.80;1.70;;;;;;;;;;7329521;19;162525;-13
2022/03/06 14:02:09;;;;;;;2.00;1.73;;;;;;;;;;7330042;19;154129;-15
2022/03/06 14:04:40;;;;;;;;;;;;;;;;;;7329815;19;153501;-13
2022/03/06 14:07:14;;;;;;;19.00;10.10;;;;;;;;;;7333873;19;162052;-14
2022/03/06 14:09:48;;;;;;;15.48;7.65;;;;;;;;;;7327487;19;162403;-14
2022/03/06 14:12:22;;;;;;;6.20;3.80;;;;;;;;;;7329216;19;154155;-13
2022/03/06 14:14:54;;;;;;;5.60;3.22;;;;;;;;;;7329646;19;153520;-13
2022/03/06 14:17:26;;;;;;;4.75;3.25;;;;;;;;;;7328688;19;161778;-13
2022/03/06 14:19:59;;;;;;;5.45;3.15;;;;;;;;;;7328518;19;163121;-13
2022/03/06 14:22:33;;;;;;;12.80;6.07;;;;;;;;;;7327081;19;153952;-13
2022/03/06 14:25:05;;;;;;;6.50;4.40;;;;;;;;;;7328851;19;153805;-13
2022/03/06 14:27:37;;;;;;;6.90;4.05;;;;;;;;;;7328351;19;162000;-15
2022/03/06 14:30:09;;;;;;;9.75;5.18;;;;;;;;;;7329471;19;162343;-15
2022/03/06 14:32:40;;;;;;;8.07;4.57;;;;;;;;;;7328713;19;154072;-14
2022/03/06 14:35:12;;;;;;;9.07;5.57;;;;;;;;;;7328662;19;153772;-13
2022/03/06 14:37:52;;;;;;;11.70;5.88;;;;;;;;;;7328360;19;161855;-15
2022/03/06 14:40:23;;;;;;;9.80;5.25;;;;;;;;;;7326170;19;162404;-15
2022/03/06 14:42:54;;;;;;;8.55;5.05;;;;;;;;;;7317581;19;153992;-15
2022/03/06 14:45:26;;;;;;;9.27;5.30;;;;;;;;;;7321368;19;153723;-16
2022/03/06 14:47:59;;;;;;;9.43;5.43;;;;;;;;;;7325502;19;161777;-15
2022/03/06 14:50:30;;;;;;;;;;;;;;;;;;7324839;19;162503;-13
2022/03/06 14:53:04;;;;;;;9.88;5.65;;;;;;;;;;7324753;19;154122;-14
2022/03/06 14:55:35;;;;;;;12.18;7.10;;;;;;;;;;7324331;19;153524;-14
2022/03/06 14:58:16;;;;;;;8.35;5.68;;;;;;;;;;7324078;19;161949;-14
2022/03/06 15:00:48;;;;;;;9.57;5.82;;;;;;;;;;7326676;19;162321;-14
2022/03/06 15:03:19;;;;;;;10.75;6.63;;;;;;;;;;7321519;19;153960;-15
2022/03/06 15:05:52;;;;;;;10.70;6.93;;;;;;;;;;7329378;19;154089;-16
2022/03/06 15:08:31;;;;;;;10.90;6.43;;;;;;;;;;7328764;19;161836;-14
2022/03/06 15:11:02;;;;;;;10.80;6.70;;;;;;;;;;7333784;19;162580;-14
2022/03/06 15:13:34;;;;;;;11.20;6.68;;;;;;;;;;7337881;19;154078;-14
2022/03/06 15:16:06;;;;;;;10.35;6.45;;;;;;;;;;7336592;19;153506;-14
2022/03/06 15:18:37;;;;;;;12.90;7.05;;;;;;;;;;7335576;19;161979;-14
2022/03/06 15:21:10;;;;;;;;;;;;;;;;;;7336990;19;162608;-14
2022/03/06 15:23:44;;;;;;;9.82;5.65;;;;;;;;;;7335947;19;154271;-15
2022/03/06 15:26:16;;;;;;;10.20;5.75;;;;;;;;;;7335860;19;153529;-14
2022/03/06 15:28:48;;;;;;;10.70;6.22;;;;;;;;;;7337788;19;161993;-14
2022/03/06 15:31:20;;;;;;;11.40;5.97;;;;;;;;;;7336503;19;162332;-14
2022/03/06 15:33:53;;;;;;;8.68;5.90;;;;;;;;;;7337645;19;153975;-14
2022/03/06 15:36:25;;;;;;;8.13;5.28;;;;;;;;;;7334803;19;153671;-13
2022/03/06 15:38:59;;;;;;;10.40;6.25;;;;;;;;;;7335312;19;161717;-14
2022/03/06 15:41:31;;;;;;;9.50;6.20;;;;;;;;;;7336155;19;162368;-16
2022/03/06 15:44:04;;;;;;;9.27;6.05;;;;;;;;;;7331928;19;153981;-14
2022/03/06 15:46:36;;;;;;;9.40;5.85;;;;;;;;;;7337044;19;153515;-13
2022/03/06 15:49:07;;;;;;;8.63;4.75;;;;;;;;;;7334528;19;162069;-12
2022/03/06 15:51:39;;;;;;;8.77;5.40;;;;;;;;;;7336342;19;162603;-13
2022/03/06 15:54:15;;;;;;;13.82;6.53;;;;;;;;;;7334123;19;153968;-15
2022/03/06 15:56:47;;;;;;;10.50;6.13;;;;;;;;;;7334627;19;153699;-13
2022/03/06 15:59:18;;;;;;;10.40;6.78;;;;;;;;;;7335921;19;161955;-14
2022/03/06 16:01:50;;;;;;;8.88;6.05;;;;;;;;;;7336312;19;162360;-13
2022/03/06 16:04:22;;;;;;;9.52;5.80;;;;;;;;;;7331976;19;154223;-14
2022/03/06 16:06:53;;;;;;;10.15;5.70;;;;;;;;;;7334889;19;153737;-14
2022/03/06 16:09:27;;;;;;;8.48;5.63;;;;;;;;;;7335056;19;161967;-15
2022/03/06 16:11:59;;;;;;;9.75;5.97;;;;;;;;;;7336647;19;162432;-15
2022/03/06 16:14:30;;;;;;;11.48;5.88;;;;;;;;;;7333881;19;153993;-15
2022/03/06 16:17:02;;;;;;;9.30;5.63;;;;;;;;;;7335057;19;153794;-15
2022/03/06 16:19:33;;;;;;;9.57;5.30;;;;;;;;;;7335398;19;161751;-15
2022/03/06 16:22:06;;;;;;;9.52;5.68;;;;;;;;;;7332529;19;162451;-15
2022/03/06 16:24:40;;;;;;;10.65;5.63;;;;;;;;;;7331993;19;153996;-15
2022/03/06 16:27:12;;;;;;;8.73;5.50;;;;;;;;;;7332187;19;153602;-15
2022/03/06 16:29:43;;;;;;;8.45;5.00;;;;;;;;;;7335515;19;162021;-15
2022/03/06 16:32:15;;;;;;;9.52;4.95;;;;;;;;;;7332097;19;162348;-15
2022/03/06 16:34:46;;;;;;;8.35;5.38;;;;;;;;;;7334553;19;154327;-15
2022/03/06 16:37:27;;;;;;;10.40;5.32;;;;;;;;;;7333851;19;153869;-14
2022/03/06 16:40:01;;;;;;;9.20;5.05;;;;;;;;;;7333244;19;161873;-15
2022/03/06 16:42:33;;;;;;;8.15;5.45;;;;;;;;;;7331414;19;162398;-13
2022/03/06 16:45:04;;;;;;;8.43;4.95;;;;;;;;;;7330444;19;154486;-13
2022/03/06 16:47:36;;;;;;;8.70;5.72;;;;;;;;;;7330724;19;153619;-14
2022/03/06 16:50:08;;;;;;;8.48;5.18;;;;;;;;;;7331476;19;162524;-15
2022/03/06 16:52:39;;;;;;;;;;;;;;;;;;7331901;19;162411;-14
2022/03/06 16:55:13;;;;;;;9.65;4.80;;;;;;;;;;7333549;19;154131;-14
2022/03/06 16:57:46;;;;;;;8.77;4.95;;;;;;;;;;7334103;19;153526;-14
2022/03/06 17:00:19;;;;;;;9.20;5.35;;;;;;;;;;7332532;19;162038;-15
2022/03/06 17:02:50;;;;;;;8.85;5.18;;;;;;;;;;7330242;19;162467;-14
2022/03/06 17:05:22;;;;;;;7.50;4.60;;;;;;;;;;7328756;19;153968;-16
2022/03/06 17:07:54;;;;;;;8.10;4.55;;;;;;;;;;7331021;19;153539;-14
2022/03/06 17:10:29;;;;;;;9.25;5.15;;;;;;;;;;7328145;19;161808;-14
2022/03/06 17:13:01;;;;;;;7.72;4.53;;;;;;;;;;7330495;19;162887;-15
2022/03/06 17:15:33;;;;;;;9.75;5.25;;;;;;;;;;7333024;19;154276;-14
2022/03/06 17:18:05;;;;;;;3.40;1.90;;;;;;;;;;7330863;19;153627;-15
2022/03/06 17:20:37;;;;;;;7.70;2.53;;;;;;;;;;7330425;19;162437;-14
2022/03/06 17:23:08;;;;;;;3.17;1.75;;;;;;;;;;7330316;19;162516;-14
2022/03/06 17:25:43;;;;;;;4.43;1.90;;;;;;;;;;7327618;19;154593;-14
2022/03/06 17:28:15;;;;;;;2.15;1.63;;;;;;;;;;7330632;19;153574;-14
2022/03/06 17:30:46;;;;;;;5.68;1.80;;;;;;;;;;7332428;19;162082;-15
2022/03/06 17:33:18;;;;;;;2.25;1.60;;;;;;;;;;7329823;19;162339;-13
2022/03/06 17:35:50;;;;;;;5.97;2.10;;;;;;;;;;7330272;19;154083;-14
2022/03/06 17:38:21;;;;;;;5.25;2.03;;;;;;;;;;7330266;19;153679;-14
2022/03/06 17:40:55;;;;;;;4.38;1.88;;;;;;;;;;7328660;19;161852;-14
2022/03/06 17:43:27;;;;;;;3.38;2.10;;;;;;;;;;7329939;19;162391;-15
2022/03/06 17:45:58;;;;;;;3.00;1.90;;;;;;;;;;7330104;19;154191;-14
2022/03/06 17:48:30;;;;;;;5.60;1.73;;;;;;;;;;7329840;19;153657;-15
2022/03/06 17:51:02;;;;;;;3.20;1.92;;;;;;;;;;7329648;19;162112;-14
2022/03/06 17:53:33;;;;;;;4.13;1.98;;;;;;;;;;7329528;19;162381;-15
2022/03/06 17:56:07;;;;;;;2.88;1.70;;;;;;;;;;7329884;19;154191;-15
2022/03/06 17:58:39;;;;;;;2.63;1.83;;;;;;;;;;7329890;19;153552;-16
2022/03/06 18:01:11;;;;;;;3.10;2.10;;;;;;;;;;7331954;19;161799;-14
2022/03/06 18:03:43;;;;;;;4.15;1.85;;;;;;;;;;7329353;19;162488;-15
2022/03/06 18:06:15;;;;;;;2.55;1.60;;;;;;;;;;7326753;19;154138;-15
2022/03/06 18:08:46;;;;;;;2.70;1.63;;;;;;;;;;7328066;19;153534;-14
2022/03/06 18:11:22;;;;;;;2.97;1.88;;;;;;;;;;7326085;19;162042;-15
2022/03/06 18:13:54;;;;;;;2.65;1.95;;;;;;;;;;7328955;19;162595;-14
2022/03/06 18:16:25;;;;;;;4.75;1.63;;;;;;;;;;7332812;19;154006;-16
2022/03/06 18:18:58;;;;;;;2.25;1.67;;;;;;;;;;7329270;19;153488;-14
2022/03/06 18:21:29;;;;;;;2.67;1.92;;;;;;;;;;7332147;19;161901;-14
2022/03/06 18:24:01;;;;;;;3.53;1.55;;;;;;;;;;7335542;19;162423;-14
2022/03/06 18:26:37;;;;;;;3.35;2.08;;;;;;;;;;7335779;19;153929;-16
2022/03/06 18:29:08;;;;;;;2.33;1.85;;;;;;;;;;7335923;19;153482;-14
2022/03/06 18:31:42;;;;;;;1.75;1.55;;;;;;;;;;7339245;19;162247;-16
2022/03/06 18:34:17;;;;;;;4.10;2.00;;;;;;;;;;7335120;19;162429;-15
2022/03/06 18:36:50;;;;;;;3.10;2.25;;;;;;;;;;7335461;19;154186;-16
2022/03/06 18:39:22;;;;;;;3.85;2.20;;;;;;;;;;7335360;19;153496;-16
2022/03/06 18:41:59;;;;;;;3.97;2.10;;;;;;;;;;7334994;19;161977;-15
2022/03/06 18:44:31;;;;;;;3.30;1.65;;;;;;;;;;7334464;19;162774;-15
2022/03/06 18:47:02;;;;;;;3.67;1.50;;;;;;;;;;7335412;19;154269;-14
2022/03/06 18:49:34;;;;;;;3.30;1.60;;;;;;;;;;7335149;19;153579;-15
2022/03/06 18:52:06;;;;;;;2.22;2.05;;;;;;;;;;7334735;19;161812;-16
2022/03/06 18:54:38;;;;;;;3.20;1.65;;;;;;;;;;7334613;19;162559;-14
2022/03/06 18:57:12;;;;;;;3.00;1.70;;;;;;;;;;7334814;19;153972;-15
2022/03/06 18:59:43;;;;;;;4.78;1.95;;;;;;;;;;7334644;19;153563;-14
2022/03/06 19:02:14;;;;;;;2.05;1.80;;;;;;;;;;7334386;19;162028;-15
2022/03/06 19:04:45;;;;;;;3.83;1.75;;;;;;;;;;7332819;19;162597;-15
2022/03/06 19:07:17;;;;;;;4.40;2.15;;;;;;;;;;7334181;19;153990;-15
2022/03/06 19:09:48;;;;;;;3.22;1.95;;;;;;;;;;7333199;19;153499;-15
2022/03/06 19:12:22;;;;;;;2.67;2.00;;;;;;;;;;7334207;19;161802;-15
2022/03/06 19:14:54;;;;;;;2.53;2.05;;;;;;;;;;7334419;19;162589;-15
2022/03/06 19:17:26;;;;;;;2.88;2.20;;;;;;;;;;7335941;19;153965;-14
2022/03/06 19:19:57;;;;;;;7.13;5.63;;;;;;;;;;7337655;19;153565;-15
2022/03/06 19:22:28;;;;;;;6.35;3.47;;;;;;;;;;7334556;19;161972;-14
2022/03/06 19:25:00;;;;;;;6.20;3.93;;;;;;;;;;7333259;19;162417;-14
2022/03/06 19:27:34;;;;;;;5.95;2.72;;;;;;;;;;7334111;19;153978;-14
2022/03/06 19:30:08;;;;;;;5.63;2.72;;;;;;;;;;7334711;19;153538;-14
2022/03/06 19:32:42;;;;;;;4.90;2.80;;;;;;;;;;7332313;19;162098;-14
2022/03/06 19:35:13;;;;;;;3.67;2.90;;;;;;;;;;7332265;19;162580;-16
2022/03/06 19:37:45;;;;;;;3.70;2.45;;;;;;;;;;7334304;19;153966;-14
2022/03/06 19:40:16;;;;;;;13.50;7.55;;;;;;;;;;7333803;19;153654;-15
2022/03/06 19:42:51;;;;;;;4.10;3.15;;;;;;;;;;7333349;19;162069;-14
2022/03/06 19:45:22;;;;;;;4.90;3.70;;;;;;;;;;7334198;19;162646;-14
2022/03/06 19:47:56;;;;;;;4.85;3.60;;;;;;;;;;7336439;19;154216;-14
2022/03/06 19:50:28;;;;;;;5.73;3.93;;;;;;;;;;7337002;19;153854;-14
2022/03/06 19:52:59;;;;;;;7.80;3.72;;;;;;;;;;7336305;19;161789;-13
2022/03/06 19:55:31;;;;;;;7.70;4.65;;;;;;;;;;7334768;19;162365;-14
2022/03/06 19:58:05;;;;;;;5.68;4.75;;;;;;;;;;7335972;19;154136;-15
2022/03/06 20:00:37;;;;;;;5.30;4.03;;;;;;;;;;7334945;19;153959;-14
2022/03/06 20:03:08;;;;;;;5.97;3.95;;;;;;;;;;7332359;19;161865;-15
2022/03/06 20:05:40;;;;;;;9.73;7.75;;;;;;;;;;7334837;19;162579;-16
2022/03/06 20:08:11;;;;;;;12.88;8.40;;;;;;;;;;7332646;19;154169;-14
2022/03/06 20:10:46;;;;;;;10.55;6.07;;;;;;;;;;7333364;19;153594;-15
2022/03/06 20:13:20;;;;;;;7.97;4.97;;;;;;;;;;7336198;19;161997;-15
2022/03/06 20:15:53;;;;;;;7.45;5.18;;;;;;;;;;7335832;19;162385;-14
2022/03/06 20:18:24;;;;;;;11.23;7.78;;;;;;;;;;7333633;19;153966;-15
2022/03/06 20:20:56;;;;;;;7.60;5.82;;;;;;;;;;7332817;19;153617;-15
2022/03/06 20:23:27;;;;;;;7.97;5.30;;;;;;;;;;7334793;19;161978;-14
2022/03/06 20:25:59;;;;;;;23.13;15.60;;;;;;;;;;7334703;19;162371;-15
2022/03/06 20:28:33;;;;;;;14.80;10.38;;;;;;;;;;7335273;19;154275;-15
2022/03/06 20:31:04;;;;;;;14.77;9.10;;;;;;;;;;7334798;19;153701;-14
2022/03/06 20:33:36;;;;;;;8.32;6.72;;;;;;;;;;7334314;19;161889;-14
2022/03/06 20:36:08;;;;;;;20.60;11.93;;;;;;;;;;7334821;19;162678;-14
2022/03/06 20:38:40;;;;;;;15.03;9.60;;;;;;;;;;7335872;19;154037;-14
2022/03/06 20:41:11;;;;;;;12.85;7.57;;;;;;;;;;7331548;19;153806;-14
2022/03/06 20:43:45;;;;;;;11.88;8.00;;;;;;;;;;7332720;19;161802;-15
2022/03/06 20:46:18;;;;;;;19.85;12.40;;;;;;;;;;7333953;19;162375;-14
2022/03/06 20:48:49;;;;;;;18.10;12.00;;;;;;;;;;7335264;19;154046;-14
2022/03/06 20:51:21;;;;;;;19.80;11.07;;;;;;;;;;7333962;19;153535;-14
2022/03/06 20:53:54;;;;;;;14.65;9.13;;;;;;;;;;7334528;19;161706;-14
2022/03/06 20:56:25;;;;;;;15.88;10.20;;;;;;;;;;7335449;19;162491;-14
2022/03/06 20:58:59;;;;;;;31.00;20.35;;;;;;;;;;7331432;19;154055;-15
2022/03/06 21:01:31;;;;;;;36.40;24.35;;;;;;;;;;7334648;19;153730;-13
2022/03/06 21:04:02;;;;;;;27.38;19.05;;;;;;;;;;7332958;19;162117;-15
2022/03/06 21:06:33;;;;;;;29.08;19.05;;;;;;;;;;7328797;19;162661;-15
2022/03/06 21:09:05;;;;;;;25.92;17.00;;;;;;;;;;7334793;19;154293;-15
2022/03/06 21:11:36;;;;;;;20.55;15.43;;;;;;;;;;7331636;19;153735;-27
2022/03/06 21:14:10;;;;;;;22.27;15.38;;;;;;;;;;7332897;19;161976;-13
2022/03/06 21:16:43;;;;;;;25.85;16.48;;;;;;;;;;7333369;19;162434;-15
2022/03/06 21:19:14;;;;;;;22.77;15.73;;;;;;;;;;7334402;19;154224;-14
2022/03/06 21:21:46;;;;;;;26.88;16.98;;;;;;;;;;7332954;19;153203;-13
2022/03/06 21:24:19;;;;;;;;;;;;;;;;;;7334149;19;162285;-14
2022/03/06 21:26:50;;;;;;;25.63;15.93;;;;;;;;;;7333196;19;162685;-14
2022/03/06 21:29:25;;;;;;;24.20;15.20;;;;;;;;;;7332379;19;153978;-15
2022/03/06 21:32:01;;;;;;;26.88;14.85;;;;;;;;;;7333807;19;153652;-14
2022/03/06 21:34:40;;;;;;;22.30;14.68;;;;;;;;;;7333572;19;162127;-15
2022/03/06 21:37:20;;;;;;;23.85;15.10;;;;;;;;;;7332832;19;162569;-14
2022/03/06 21:39:54;;;;;;;20.83;15.07;;;;;;;;;;7333522;19;154021;-15
2022/03/06 21:42:27;;;;;;;22.55;13.73;;;;;;;;;;7333149;19;153601;-15
2022/03/06 21:45:01;;;;;;;19.98;13.10;;;;;;;;;;7331182;19;161833;-14
2022/03/06 21:47:33;;;;;;;20.08;13.45;;;;;;;;;;7331683;19;162390;-14
2022/03/06 21:50:04;;;;;;;21.60;13.85;;;;;;;;;;7332675;19;153944;-14
2022/03/06 21:52:36;;;;;;;19.83;14.20;;;;;;;;;;7333229;19;153840;-15
2022/03/06 21:55:09;;;;;;;20.33;13.00;;;;;;;;;;7332139;19;161849;-15
2022/03/06 21:57:41;;;;;;;19.48;12.88;;;;;;;;;;7333116;19;162765;-15
2022/03/06 22:00:17;;;;;;;20.97;12.80;;;;;;;;;;7332758;19;154672;-15
2022/03/06 22:02:49;;;;;;;19.92;12.55;;;;;;;;;;7331623;19;153560;-14
2022/03/06 22:05:22;;;;;;;17.63;11.95;;;;;;;;;;7330838;19;161786;-14
2022/03/06 22:07:52;;;;;;;;;;;;;;;;;;7331626;19;162386;-14
2022/03/06 22:10:24;;;;;;;15.70;11.90;;;;;;;;;;7330741;19;154288;-14
2022/03/06 22:12:55;;;;;;;16.98;12.38;;;;;;;;;;7331831;19;153712;-15
2022/03/06 22:15:29;;;;;;;18.65;12.05;;;;;;;;;;7331412;19;161887;-14
2022/03/06 22:18:00;;;;;;;21.40;12.95;;;;;;;;;;7331687;19;164283;-14
2022/03/06 22:20:32;;;;;;;16.73;12.13;;;;;;;;;;7332778;19;154207;-13
2022/03/06 22:23:03;;;;;;;16.33;11.23;;;;;;;;;;7331872;19;153877;-15
2022/03/06 22:25:34;;;;;;;18.33;11.85;;;;;;;;;;7331604;19;161934;-14
2022/03/06 22:28:06;;;;;;;18.40;11.13;;;;;;;;;;7330267;19;162006;-13
2022/03/06 22:30:40;;;;;;;18.50;12.07;;;;;;;;;;7331374;19;154185;-20
2022/03/06 22:33:12;;;;;;;14.77;10.55;;;;;;;;;;7332005;19;153616;-14
2022/03/06 22:35:43;;;;;;;16.15;11.23;;;;;;;;;;7331466;19;161966;-15
2022/03/06 22:38:15;;;;;;;14.48;10.40;;;;;;;;;;7330253;19;162420;-14
2022/03/06 22:40:47;;;;;;;16.20;11.20;;;;;;;;;;7331648;19;154142;-14
2022/03/06 22:43:18;;;;;;;15.48;11.15;;;;;;;;;;7331047;19;153620;-14
2022/03/06 22:45:52;;;;;;;14.50;10.65;;;;;;;;;;7330313;19;161824;-15
2022/03/06 22:48:23;;;;;;;15.20;10.95;;;;;;;;;;7329362;19;162506;-15
2022/03/06 22:50:55;;;;;;;16.90;11.57;;;;;;;;;;7330363;19;154340;-15
2022/03/06 22:53:27;;;;;;;15.15;10.07;;;;;;;;;;7331064;19;153590;-15
2022/03/06 22:55:58;;;;;;;15.23;11.23;;;;;;;;;;7330487;19;161895;-13
2022/03/06 22:58:29;;;;;;;17.25;10.65;;;;;;;;;;7329642;19;162352;-14
2022/03/06 23:01:26;;;;;;;13.85;9.98;;;;;;;;;;7330126;19;156167;-14
2022/03/06 23:07:06;;;;;;;13.48;10.07;;;;;;;;;;7330233;19;153774;-15
2022/03/06 23:09:36;;;;;;;16.95;10.65;;;;;;;;;;7334830;19;162373;-14
2022/03/06 23:12:09;;;;;;;12.90;9.27;;;;;;;;;;7337401;19;154016;-14
2022/03/06 23:14:42;;;;;;;14.25;9.05;;;;;;;;;;7337311;19;153639;-15
2022/03/06 23:17:18;;;;;;;13.20;9.57;;;;;;;;;;7337091;19;161813;-13
2022/03/06 23:19:49;;;;;;;14.30;9.73;;;;;;;;;;7336590;19;162534;-14
2022/03/06 23:22:21;;;;;;;13.38;9.00;;;;;;;;;;7337147;19;154019;-15
2022/03/06 23:24:52;;;;;;;15.13;9.07;;;;;;;;;;7336691;19;153550;-14
2022/03/06 23:27:23;;;;;;;11.48;8.82;;;;;;;;;;7335150;19;161784;-16
2022/03/06 23:29:55;;;;;;;11.85;9.48;;;;;;;;;;7331417;19;162412;-13
2022/03/06 23:32:28;;;;;;;14.05;8.95;;;;;;;;;;7333687;19;153964;-13
2022/03/06 23:35:00;;;;;;;13.23;9.23;;;;;;;;;;7337797;19;153706;-14
2022/03/06 23:37:31;;;;;;;11.57;8.80;;;;;;;;;;7333036;19;161781;-13
2022/03/06 23:40:02;;;;;;;13.32;8.60;;;;;;;;;;7333028;19;162397;-13
2022/03/06 23:42:34;;;;;;;12.93;8.98;;;;;;;;;;7333340;19;154482;-14
2022/03/06 23:45:08;;;;;;;11.38;8.75;;;;;;;;;;7334377;19;153828;-14
2022/03/06 23:47:42;;;;;;;10.77;8.20;;;;;;;;;;7332810;19;161936;-14
2022/03/06 23:50:13;;;;;;;11.90;8.85;;;;;;;;;;7330323;19;162260;-14
2022/03/06 23:52:45;;;;;;;11.57;8.80;;;;;;;;;;7333086;19;154083;-15
2022/03/06 23:55:16;;;;;;;11.65;8.23;;;;;;;;;;7333142;19;153542;-14
2022/03/06 23:57:47;;;;;;;10.98;8.02;;;;;;;;;;7332445;19;162074;-13
